createdAt,value
2023-05-18T00:00:16.552Z,99140.04
2023-05-18T00:02:43.697Z,99144.52
2023-05-18T00:05:10.474Z,99140.70
2023-05-18T00:07:37.603Z,99139.06
2023-05-18T00:10:04.473Z,99138.75
2023-05-18T00:12:31.144Z,99140.06
2023-05-18T00:14:57.919Z,99138.23
2023-05-18T00:17:24.946Z,99135.23
2023-05-18T00:19:51.903Z,99134.09
2023-05-18T00:22:19.021Z,99131.42
2023-05-18T00:24:46.470Z,99131.34
2023-05-18T00:27:13.077Z,99126.62
2023-05-18T00:29:39.749Z,99126.73
2023-05-18T00:32:06.573Z,99131.52
2023-05-18T00:34:33.287Z,99131.77
2023-05-18T00:36:59.932Z,99130.67
2023-05-18T00:39:26.648Z,99127.23
2023-05-18T00:41:53.305Z,99123.69
2023-05-18T00:44:20.061Z,99119.84
2023-05-18T00:46:46.777Z,99122.77
2023-05-18T00:49:13.473Z,99118.12
2023-05-18T00:51:40.181Z,99120.31
2023-05-18T00:54:08.382Z,99122.64
2023-05-18T00:56:35.270Z,99119.35
2023-05-18T00:59:02.281Z,99123.23
2023-05-18T01:01:29.607Z,99122.23
2023-05-18T01:03:57.656Z,99123.80
2023-05-18T01:06:27.380Z,99127.17
2023-05-18T01:08:54.156Z,99129.98
2023-05-18T01:11:29.521Z,99128.98
2023-05-18T01:14:03.379Z,99128.55
2023-05-18T01:16:34.575Z,99126.11
2023-05-18T01:19:05.639Z,99129.58
2023-05-18T01:21:46.338Z,99141.35
2023-05-18T01:24:16.255Z,99142.45
2023-05-18T01:26:45.325Z,99148.73
2023-05-18T01:29:13.107Z,99158.14
2023-05-18T01:31:40.163Z,99164.55
2023-05-18T01:34:06.829Z,99163.79
2023-05-18T01:36:33.547Z,99166.08
2023-05-18T01:39:01.850Z,99157.02
2023-05-18T01:41:29.683Z,99153.71
2023-05-18T01:43:56.420Z,99157.22
2023-05-18T01:46:36.750Z,99156.52
2023-05-18T01:49:32.909Z,99150.08
2023-05-18T01:52:04.601Z,99157.09
2023-05-18T01:54:31.789Z,99158.66
2023-05-18T01:56:58.522Z,99165.16
2023-05-18T01:59:25.809Z,99162.67
2023-05-18T02:01:59.331Z,99160.86
2023-05-18T02:04:27.076Z,99163.71
2023-05-18T02:06:54.315Z,99162.89
2023-05-18T02:09:21.770Z,99166.59
2023-05-18T02:11:49.319Z,99165.60
2023-05-18T02:14:16.432Z,99167.42
2023-05-18T02:16:47.568Z,99161.65
2023-05-18T02:19:14.962Z,99162.32
2023-05-18T02:21:43.602Z,99163.60
2023-05-18T02:24:10.704Z,99169.02
2023-05-18T02:26:37.754Z,99167.08
2023-05-18T02:29:06.425Z,99165.58
2023-05-18T02:31:33.209Z,99164.80
2023-05-18T02:34:01.533Z,99166.86
2023-05-18T02:36:28.289Z,99175.45
2023-05-18T02:38:55.057Z,99183.80
2023-05-18T02:41:22.853Z,99175.23
2023-05-18T02:43:49.582Z,99182.75
2023-05-18T02:46:16.545Z,99185.33
2023-05-18T02:48:45.770Z,99184.67
2023-05-18T02:51:12.574Z,99183.98
2023-05-18T02:53:39.555Z,99182.62
2023-05-18T02:56:08.999Z,99183.24
2023-05-18T02:58:44.010Z,99181.75
2023-05-18T03:01:27.105Z,99179.94
2023-05-18T03:03:54.402Z,99179.86
2023-05-18T03:06:26.696Z,99183.95
2023-05-18T03:08:57.078Z,99190.83
2023-05-18T03:11:29.662Z,99191.52
2023-05-18T03:13:56.956Z,99190.80
2023-05-18T03:16:28.366Z,99193.10
2023-05-18T03:18:58.854Z,99197.84
2023-05-18T03:21:33.515Z,99206.22
2023-05-18T03:24:00.461Z,99203.98
2023-05-18T03:26:30.882Z,99201.14
2023-05-18T03:28:57.958Z,99203.83
2023-05-18T03:31:25.000Z,99208.11
2023-05-18T03:33:52.093Z,99215.61
2023-05-18T03:36:18.753Z,99213.69
2023-05-18T03:38:46.329Z,99211.29
2023-05-18T03:41:13.207Z,99214.20
2023-05-18T03:43:39.869Z,99213.73
2023-05-18T03:46:06.879Z,99219.49
2023-05-18T03:48:33.689Z,99217.73
2023-05-18T03:51:00.736Z,99221.21
2023-05-18T03:53:29.606Z,99228.45
2023-05-18T03:55:56.938Z,99225.20
2023-05-18T03:58:23.656Z,99224.77
2023-05-18T04:00:50.363Z,99228.45
2023-05-18T04:03:17.263Z,99232.65
2023-05-18T04:05:44.391Z,99231.09
2023-05-18T04:08:14.565Z,99231.30
2023-05-18T04:10:42.211Z,99229.11
2023-05-18T04:13:08.954Z,99228.66
2023-05-18T04:15:36.541Z,99230.11
2023-05-18T04:18:03.369Z,99227.06
2023-05-18T04:20:30.142Z,99228.61
2023-05-18T04:22:57.545Z,99226.33
2023-05-18T04:25:28.431Z,99232.77
2023-05-18T04:27:55.806Z,99241.17
2023-05-18T04:30:23.661Z,99245.61
2023-05-18T04:32:51.109Z,99244.83
2023-05-18T04:35:18.668Z,99245.02
2023-05-18T04:37:45.468Z,99247.81
2023-05-18T04:40:18.520Z,99243.52
2023-05-18T04:42:48.185Z,99249.75
2023-05-18T04:45:19.226Z,99254.95
2023-05-18T04:47:46.812Z,99256.86
2023-05-18T04:50:14.915Z,99256.69
2023-05-18T04:52:47.939Z,99262.76
2023-05-18T04:55:26.374Z,99260.17
2023-05-18T04:57:56.944Z,99257.27
2023-05-18T05:00:24.865Z,99261.01
2023-05-18T05:02:51.707Z,99262.84
2023-05-18T05:05:19.042Z,99261.97
2023-05-18T05:07:45.730Z,99259.35
2023-05-18T05:10:12.447Z,99266.08
2023-05-18T05:12:39.350Z,99268.75
2023-05-18T05:15:06.335Z,99271.23
2023-05-18T05:17:33.058Z,99277.58
2023-05-18T05:20:00.027Z,99279.56
2023-05-18T05:22:26.856Z,99278.41
2023-05-18T05:24:53.682Z,99274.65
2023-05-18T05:27:20.682Z,99274.77
2023-05-18T05:29:47.385Z,99279.08
2023-05-18T05:32:14.108Z,99285.94
2023-05-18T05:34:45.492Z,99288.47
2023-05-18T05:37:12.687Z,99287.48
2023-05-18T05:39:39.572Z,99288.45
2023-05-18T05:42:06.451Z,99294.70
2023-05-18T05:44:33.181Z,99294.42
2023-05-18T05:46:59.934Z,99286.63
2023-05-18T05:49:26.953Z,99287.71
2023-05-18T05:51:53.773Z,99288.81
2023-05-18T05:54:20.535Z,99291.79
2023-05-18T05:56:47.327Z,99294.05
2023-05-18T05:59:15.690Z,99294.36
2023-05-18T06:01:42.617Z,99299.70
2023-05-18T06:04:12.441Z,99298.34
2023-05-18T06:06:39.329Z,99301.64
2023-05-18T06:09:07.036Z,99305.11
2023-05-18T06:11:33.706Z,99303.10
2023-05-18T06:14:00.492Z,99309.40
2023-05-18T06:16:27.261Z,99310.97
2023-05-18T06:18:54.203Z,99314.78
2023-05-18T06:21:20.904Z,99319.57
2023-05-18T06:23:48.654Z,99324.14
2023-05-18T06:26:34.200Z,99323.70
2023-05-18T06:29:21.510Z,99330.55
2023-05-18T06:32:08.494Z,99333.54
2023-05-18T06:34:38.407Z,99335.84
2023-05-18T06:37:05.457Z,99341.45
2023-05-18T06:39:32.256Z,99339.73
2023-05-18T06:41:59.040Z,99341.48
2023-05-18T06:44:31.556Z,99345.17
2023-05-18T06:47:24.351Z,99349.99
2023-05-18T06:49:51.306Z,99355.90
2023-05-18T06:52:18.108Z,99363.38
2023-05-18T06:54:45.307Z,99362.14
2023-05-18T06:57:12.361Z,99363.95
2023-05-18T06:59:39.027Z,99364.86
2023-05-18T07:02:06.600Z,99364.42
2023-05-18T07:04:33.280Z,99365.77
2023-05-18T07:06:59.994Z,99366.67
2023-05-18T07:09:26.669Z,99366.95
2023-05-18T07:11:53.636Z,99369.53
2023-05-18T07:14:20.388Z,99371.05
2023-05-18T07:16:47.516Z,99370.21
2023-05-18T07:19:15.049Z,99375.55
2023-05-18T07:21:42.272Z,99378.48
2023-05-18T07:24:08.987Z,99378.48
2023-05-18T07:26:35.702Z,99379.28
2023-05-18T07:29:02.341Z,99380.86
2023-05-18T07:31:29.051Z,99381.65
2023-05-18T07:33:55.782Z,99382.94
2023-05-18T07:36:22.933Z,99383.55
2023-05-18T07:38:54.898Z,99390.94
2023-05-18T07:41:22.923Z,99391.17
2023-05-18T07:43:50.654Z,99396.00
2023-05-18T07:46:17.583Z,99400.85
2023-05-18T07:48:45.246Z,99402.55
2023-05-18T07:51:12.330Z,99402.45
2023-05-18T07:53:39.573Z,99404.70
2023-05-18T07:56:07.080Z,99406.98
2023-05-18T07:58:34.309Z,99408.08
2023-05-18T08:01:01.193Z,99406.57
2023-05-18T08:03:28.076Z,99408.59
2023-05-18T08:05:54.760Z,99414.03
2023-05-18T08:08:21.886Z,99415.38
2023-05-18T08:10:48.553Z,99417.68
2023-05-18T08:13:15.171Z,99424.09
2023-05-18T08:15:41.984Z,99423.70
2023-05-18T08:18:08.682Z,99423.91
2023-05-18T08:20:35.482Z,99427.95
2023-05-18T08:23:02.194Z,99431.31
2023-05-18T08:25:29.008Z,99428.38
2023-05-18T08:27:55.934Z,99428.27
2023-05-18T08:30:22.791Z,99424.98
2023-05-18T08:32:49.650Z,99422.74
2023-05-18T08:35:16.484Z,99427.20
2023-05-18T08:37:43.194Z,99428.41
2023-05-18T08:40:12.877Z,99428.37
2023-05-18T08:42:49.374Z,99430.31
2023-05-18T08:45:19.965Z,99432.27
2023-05-18T08:47:46.782Z,99431.08
2023-05-18T08:50:15.958Z,99437.11
2023-05-18T08:52:43.042Z,99436.82
2023-05-18T08:55:11.957Z,99437.61
2023-05-18T08:57:39.287Z,99440.33
2023-05-18T09:00:06.293Z,99441.02
2023-05-18T09:02:32.952Z,99440.27
2023-05-18T09:04:59.589Z,99436.20
2023-05-18T09:07:27.644Z,99431.20
2023-05-18T09:09:54.816Z,99431.29
2023-05-18T09:12:24.329Z,99432.14
2023-05-18T09:14:51.581Z,99425.27
2023-05-18T09:17:18.717Z,99420.52
2023-05-18T09:19:45.494Z,99420.33
2023-05-18T09:22:12.215Z,99417.16
2023-05-18T09:24:38.934Z,99420.39
2023-05-18T09:27:06.461Z,99420.65
2023-05-18T09:29:33.826Z,99415.34
2023-05-18T09:32:06.953Z,99417.06
2023-05-18T09:34:41.079Z,99413.60
2023-05-18T09:37:07.996Z,99417.07
2023-05-18T09:39:34.609Z,99417.98
2023-05-18T09:42:02.769Z,99416.78
2023-05-18T09:44:33.831Z,99417.30
2023-05-18T09:47:00.689Z,99419.11
2023-05-18T09:49:29.065Z,99419.25
2023-05-18T09:51:56.740Z,99420.46
2023-05-18T09:54:24.505Z,99421.39
2023-05-18T09:57:02.428Z,99428.95
2023-05-18T09:59:36.680Z,99424.25
2023-05-18T10:02:06.040Z,99422.27
2023-05-18T10:04:39.831Z,99423.89
2023-05-18T10:07:11.173Z,99424.83
2023-05-18T10:09:38.075Z,99424.14
2023-05-18T10:12:10.126Z,99430.57
2023-05-18T10:14:36.882Z,99430.15
2023-05-18T10:17:15.095Z,99428.86
2023-05-18T10:19:43.279Z,99430.95
2023-05-18T10:22:10.075Z,99433.66
2023-05-18T10:24:40.084Z,99431.41
2023-05-18T10:27:07.852Z,99431.25
2023-05-18T10:29:34.763Z,99434.65
2023-05-18T10:32:06.005Z,99436.73
2023-05-18T10:34:54.216Z,99434.15
2023-05-18T10:40:43.313Z,99435.27
2023-05-18T10:43:10.045Z,99437.66
2023-05-18T10:45:37.212Z,99434.41
2023-05-18T10:48:05.151Z,99431.27
2023-05-18T10:50:32.221Z,99432.67
2023-05-18T10:52:59.496Z,99429.90
2023-05-18T10:55:27.818Z,99429.36
2023-05-18T10:58:01.701Z,99426.73
2023-05-18T11:00:28.524Z,99428.30
2023-05-18T11:02:55.525Z,99426.39
2023-05-18T11:08:09.688Z,99424.40
2023-05-18T11:10:43.764Z,99424.90
2023-05-18T11:13:13.418Z,99426.56
2023-05-18T11:16:02.211Z,99425.25
2023-05-18T11:18:36.668Z,99423.21
2023-05-18T11:21:03.522Z,99427.42
2023-05-18T11:23:31.781Z,99429.45
2023-05-18T11:26:04.916Z,99428.66
2023-05-18T11:28:33.665Z,99430.20
2023-05-18T11:31:00.397Z,99431.27
2023-05-18T11:33:28.174Z,99433.09
2023-05-18T11:36:01.971Z,99436.25
2023-05-18T11:38:48.636Z,99433.67
2023-05-18T11:41:31.263Z,99435.50
2023-05-18T11:44:18.903Z,99437.45
2023-05-18T11:47:04.302Z,99441.05
2023-05-18T11:49:47.532Z,99440.65
2023-05-18T11:52:21.215Z,99443.06
2023-05-18T11:54:57.983Z,99441.39
2023-05-18T11:57:24.691Z,99441.98
2023-05-18T11:59:55.349Z,99445.80
2023-05-18T12:02:22.753Z,99451.20
2023-05-18T12:04:51.190Z,99450.49
2023-05-18T12:07:18.958Z,99451.48
2023-05-18T12:09:47.162Z,99451.23
2023-05-18T12:12:17.154Z,99453.36
2023-05-18T12:14:45.386Z,99449.80
2023-05-18T12:17:12.299Z,99450.10
2023-05-18T12:19:41.915Z,99452.19
2023-05-18T12:22:09.308Z,99462.23
2023-05-18T12:24:36.734Z,99465.16
2023-05-18T12:27:07.339Z,99458.06
2023-05-18T12:29:34.934Z,99457.95
2023-05-18T12:32:05.111Z,99460.39
2023-05-18T12:34:32.036Z,99466.58
2023-05-18T12:36:58.985Z,99472.09
2023-05-18T12:39:28.479Z,99470.98
2023-05-18T12:42:08.051Z,99466.18
2023-05-18T12:44:34.786Z,99465.15
2023-05-18T12:47:01.789Z,99467.34
2023-05-18T12:49:28.491Z,99469.58
2023-05-18T12:51:55.507Z,99471.29
2023-05-18T12:54:29.494Z,99469.17
2023-05-18T12:57:02.036Z,99464.34
2023-05-18T12:59:29.303Z,99463.28
2023-05-18T13:01:56.816Z,99460.13
2023-05-18T13:04:23.763Z,99457.66
2023-05-18T13:06:50.684Z,99457.66
2023-05-18T13:09:17.477Z,99461.65
2023-05-18T13:11:52.023Z,99466.11
2023-05-18T13:14:27.358Z,99472.73
2023-05-18T13:16:54.163Z,99476.61
2023-05-18T13:19:21.125Z,99480.93
2023-05-18T13:21:54.978Z,99475.08
2023-05-18T13:24:21.796Z,99484.64
2023-05-18T13:26:48.627Z,99492.23
2023-05-18T13:29:15.395Z,99487.67
2023-05-18T13:31:42.185Z,99491.32
2023-05-18T13:34:08.893Z,99489.84
2023-05-18T13:36:36.688Z,99487.02
2023-05-18T13:39:07.465Z,99484.40
2023-05-18T13:41:36.529Z,99486.30
2023-05-18T13:44:03.736Z,99487.41
2023-05-18T13:46:30.660Z,99490.93
2023-05-18T13:48:57.400Z,99493.65
2023-05-18T13:51:24.356Z,99495.23
2023-05-18T13:53:51.028Z,99502.23
2023-05-18T13:56:17.742Z,99503.89
2023-05-18T13:58:44.805Z,99507.79
2023-05-18T14:01:13.840Z,99505.77
2023-05-18T14:03:41.165Z,99503.84
2023-05-18T14:06:08.107Z,99501.29
2023-05-18T14:08:34.792Z,99501.83
2023-05-18T14:11:01.523Z,99503.59
2023-05-18T14:13:28.270Z,99505.35
2023-05-18T14:15:55.007Z,99508.05
2023-05-18T14:18:21.721Z,99519.17
2023-05-18T14:20:48.918Z,99526.98
2023-05-18T14:23:15.685Z,99530.39
2023-05-18T14:25:43.791Z,99533.48
2023-05-18T14:28:10.801Z,99538.20
2023-05-18T14:30:37.536Z,99538.06
2023-05-18T14:33:04.328Z,99539.66
2023-05-18T14:35:31.371Z,99542.70
2023-05-18T14:37:58.088Z,99541.31
2023-05-18T14:40:24.868Z,99541.41
2023-05-18T14:42:53.642Z,99533.64
2023-05-18T14:45:20.808Z,99522.26
2023-05-18T14:47:48.129Z,99527.22
2023-05-18T14:50:15.057Z,99531.30
2023-05-18T14:52:41.787Z,99531.55
2023-05-18T14:55:08.890Z,99530.73
2023-05-18T14:57:35.690Z,99525.74
2023-05-18T15:00:02.537Z,99521.76
2023-05-18T15:02:29.298Z,99521.48
2023-05-18T15:04:56.140Z,99524.93
2023-05-18T15:07:22.891Z,99533.33
2023-05-18T15:09:49.625Z,99531.76
2023-05-18T15:12:17.833Z,99539.48
2023-05-18T15:14:44.599Z,99536.20
2023-05-18T15:17:12.513Z,99537.61
2023-05-18T15:19:39.285Z,99539.89
2023-05-18T15:22:06.196Z,99545.61
2023-05-18T15:24:32.958Z,99549.87
2023-05-18T15:26:59.689Z,99548.52
2023-05-18T15:29:26.668Z,99545.70
2023-05-18T15:31:55.090Z,99548.31
2023-05-18T15:34:21.932Z,99548.71
2023-05-18T15:36:48.801Z,99553.06
2023-05-18T15:39:15.628Z,99558.77
2023-05-18T15:41:42.349Z,99564.14
2023-05-18T15:44:09.057Z,99561.21
2023-05-18T15:46:35.959Z,99558.64
2023-05-18T15:49:02.815Z,99559.21
2023-05-18T15:51:29.845Z,99563.54
2023-05-18T15:53:58.695Z,99565.73
2023-05-18T15:56:25.926Z,99575.95
2023-05-18T15:58:52.863Z,99582.52
2023-05-18T16:01:19.794Z,99591.01
2023-05-18T16:03:46.714Z,99599.96
2023-05-18T16:06:13.490Z,99607.91
2023-05-18T16:08:40.226Z,99616.09
2023-05-18T16:11:07.218Z,99626.30
2023-05-18T16:13:34.053Z,99641.98
2023-05-18T16:16:00.936Z,99646.85
2023-05-18T16:18:27.778Z,99653.48
2023-05-18T16:20:54.900Z,99661.63
2023-05-18T16:23:21.638Z,99665.42
2023-05-18T16:25:48.472Z,99674.53
2023-05-18T16:28:15.240Z,99681.47
2023-05-18T16:30:41.939Z,99693.01
2023-05-18T16:33:08.773Z,99710.80
2023-05-18T16:35:35.873Z,99712.20
2023-05-18T16:38:02.791Z,99711.38
2023-05-18T16:40:29.778Z,99705.79
2023-05-18T16:42:56.932Z,99703.02
2023-05-18T16:45:25.180Z,99700.90
2023-05-18T16:47:53.298Z,99701.92
2023-05-18T16:50:20.229Z,99695.67
2023-05-18T16:52:46.978Z,99692.45
2023-05-18T16:55:13.729Z,99687.45
2023-05-18T16:57:40.462Z,99682.27
2023-05-18T17:00:09.798Z,99674.09
2023-05-18T17:02:38.285Z,99669.70
2023-05-18T17:05:06.646Z,99658.95
2023-05-18T17:07:33.510Z,99648.10
2023-05-18T17:10:00.297Z,99643.91
2023-05-18T17:12:27.044Z,99645.69
2023-05-18T17:14:53.823Z,99650.71
2023-05-18T17:17:20.660Z,99646.54
2023-05-18T17:19:47.373Z,99649.55
2023-05-18T17:22:14.076Z,99649.23
2023-05-18T17:24:41.542Z,99647.46
2023-05-18T17:27:08.318Z,99649.70
2023-05-18T17:29:35.897Z,99643.70
2023-05-18T17:32:02.857Z,99641.14
2023-05-18T17:34:30.696Z,99638.85
2023-05-18T17:36:57.655Z,99641.79
2023-05-18T17:39:24.916Z,99645.04
2023-05-18T17:41:54.232Z,99642.91
2023-05-18T17:44:21.068Z,99640.12
2023-05-18T17:46:47.937Z,99637.51
2023-05-18T17:49:14.714Z,99640.81
2023-05-18T17:51:41.839Z,99646.92
2023-05-18T17:54:08.587Z,99652.66
2023-05-18T17:56:35.356Z,99651.91
2023-05-18T17:59:02.180Z,99658.84
2023-05-18T18:01:29.421Z,99657.52
2023-05-18T18:03:56.692Z,99670.09
2023-05-18T18:06:23.674Z,99669.89
2023-05-18T18:08:51.039Z,99663.08
2023-05-18T18:11:17.872Z,99666.65
2023-05-18T18:13:44.568Z,99671.36
2023-05-18T18:16:11.418Z,99675.38
2023-05-18T18:18:41.095Z,99676.33
2023-05-18T18:21:10.054Z,99667.20
2023-05-18T18:23:37.106Z,99665.38
2023-05-18T18:26:04.187Z,99659.16
2023-05-18T18:28:31.449Z,99657.48
2023-05-18T18:30:58.243Z,99659.57
2023-05-18T18:33:28.129Z,99662.05
2023-05-18T18:35:55.552Z,99665.04
2023-05-18T18:38:22.392Z,99664.78
2023-05-18T18:40:49.132Z,99667.89
2023-05-18T18:43:16.210Z,99668.21
2023-05-18T18:45:43.048Z,99672.32
2023-05-18T18:48:09.859Z,99676.67
2023-05-18T18:50:36.827Z,99679.22
2023-05-18T18:53:03.552Z,99686.28
2023-05-18T18:55:30.587Z,99689.54
2023-05-18T18:57:59.544Z,99691.89
2023-05-18T19:00:26.485Z,99695.52
2023-05-18T19:02:53.348Z,99695.61
2023-05-18T19:05:23.423Z,99695.11
2023-05-18T19:07:50.986Z,99695.65
2023-05-18T19:10:17.721Z,99703.02
2023-05-18T19:12:44.496Z,99703.91
2023-05-18T19:15:13.284Z,99709.90
2023-05-18T19:17:43.293Z,99716.08
2023-05-18T19:20:13.446Z,99714.33
2023-05-18T19:22:41.509Z,99718.05
2023-05-18T19:25:08.570Z,99721.05
2023-05-18T19:27:35.360Z,99716.34
2023-05-18T19:30:05.195Z,99721.95
2023-05-18T19:32:33.643Z,99724.53
2023-05-18T19:35:00.583Z,99727.79
2023-05-18T19:37:27.489Z,99728.55
2023-05-18T19:39:55.692Z,99732.98
2023-05-18T19:42:22.416Z,99733.39
2023-05-18T19:44:49.176Z,99733.66
2023-05-18T19:47:16.010Z,99733.57
2023-05-18T19:49:42.834Z,99735.18
2023-05-18T19:52:12.789Z,99738.05
2023-05-18T19:54:39.610Z,99739.02
2023-05-18T19:57:06.342Z,99738.70
2023-05-18T19:59:33.846Z,99744.92
2023-05-18T20:02:00.688Z,99750.15
2023-05-18T20:04:28.746Z,99755.39
2023-05-18T20:06:59.177Z,99754.36
2023-05-18T20:09:26.068Z,99756.01
2023-05-18T20:11:53.426Z,99762.70
2023-05-18T20:14:20.268Z,99758.02
2023-05-18T20:16:47.009Z,99760.81
2023-05-18T20:19:15.150Z,99760.48
2023-05-18T20:21:42.295Z,99763.88
2023-05-18T20:24:09.029Z,99769.33
2023-05-18T20:26:35.877Z,99769.84
2023-05-18T20:29:02.984Z,99771.41
2023-05-18T20:31:29.809Z,99769.48
2023-05-18T20:33:58.014Z,99772.66
2023-05-18T20:36:25.331Z,99771.05
2023-05-18T20:38:53.406Z,99778.87
2023-05-18T20:41:21.042Z,99777.55
2023-05-18T20:43:50.417Z,99781.59
2023-05-18T20:46:17.622Z,99784.98
2023-05-18T20:48:44.859Z,99785.06
2023-05-18T20:51:18.802Z,99791.25
2023-05-18T20:53:47.133Z,99791.47
2023-05-18T20:56:15.736Z,99786.99
2023-05-18T20:58:48.839Z,99782.31
2023-05-18T21:01:16.375Z,99783.55
2023-05-18T21:03:45.500Z,99785.16
2023-05-18T21:06:15.918Z,99783.39
2023-05-18T21:08:45.822Z,99779.70
2023-05-18T21:11:12.755Z,99784.05
2023-05-18T21:13:39.562Z,99783.09
2023-05-18T21:16:08.474Z,99785.33
2023-05-18T21:18:35.462Z,99791.42
2023-05-18T21:21:02.487Z,99791.23
2023-05-18T21:23:29.384Z,99791.56
2023-05-18T21:25:56.506Z,99793.42
2023-05-18T21:28:25.246Z,99795.64
2023-05-18T21:30:52.360Z,99792.53
2023-05-18T21:33:19.442Z,99794.92
2023-05-18T21:35:46.439Z,99795.17
2023-05-18T21:38:13.151Z,99797.67
2023-05-18T21:40:43.496Z,99796.27
2023-05-18T21:43:10.780Z,99792.98
2023-05-18T21:45:37.695Z,99792.98
2023-05-18T21:48:04.856Z,99791.06
2023-05-18T21:50:35.166Z,99794.09
2023-05-18T21:53:05.594Z,99797.63
2023-05-18T21:55:32.351Z,99799.05
2023-05-18T21:57:59.283Z,99798.28
2023-05-18T22:00:26.973Z,99800.02
2023-05-18T22:02:53.951Z,99799.24
2023-05-18T22:05:20.716Z,99801.27
2023-05-18T22:07:47.971Z,99802.17
2023-05-18T22:10:14.718Z,99798.76
2023-05-18T22:12:43.574Z,99797.25
2023-05-18T22:15:10.739Z,99802.70
2023-05-18T22:17:37.553Z,99802.81
2023-05-18T22:20:11.582Z,99805.89
2023-05-18T22:22:40.354Z,99809.60
2023-05-18T22:25:07.591Z,99808.36
2023-05-18T22:27:36.764Z,99812.71
2023-05-18T22:30:04.894Z,99811.74
2023-05-18T22:32:31.751Z,99809.23
2023-05-18T22:35:00.241Z,99808.83
2023-05-18T22:37:27.005Z,99812.02
2023-05-18T22:39:53.822Z,99811.61
2023-05-18T22:42:21.440Z,99817.02
2023-05-18T22:44:48.418Z,99817.80
2023-05-18T22:47:19.771Z,99817.58
2023-05-18T22:49:46.755Z,99816.02
2023-05-18T22:52:13.501Z,99817.60
2023-05-18T22:54:40.200Z,99816.78
2023-05-18T22:57:07.229Z,99819.11
2023-05-18T22:59:34.864Z,99819.14
2023-05-18T23:02:01.615Z,99820.86
2023-05-18T23:04:28.386Z,99818.19
2023-05-18T23:06:57.134Z,99821.60
2023-05-18T23:09:27.031Z,99822.55
2023-05-18T23:11:56.778Z,99820.59
2023-05-18T23:14:24.597Z,99824.02
2023-05-18T23:16:53.600Z,99824.27
2023-05-18T23:19:20.606Z,99825.55
2023-05-18T23:21:47.459Z,99825.91
2023-05-18T23:24:14.514Z,99824.54
2023-05-18T23:26:42.242Z,99824.17
2023-05-18T23:29:09.069Z,99822.89
2023-05-18T23:31:35.976Z,99819.23
2023-05-18T23:34:02.959Z,99820.02
2023-05-18T23:36:35.008Z,99822.56
2023-05-18T23:39:02.451Z,99822.79
2023-05-18T23:41:29.861Z,99822.06
2023-05-18T23:43:56.803Z,99816.73
2023-05-18T23:46:23.677Z,99816.49
2023-05-18T23:48:52.565Z,99815.17
2023-05-18T23:51:21.398Z,99819.95
2023-05-18T23:53:48.710Z,99820.90
2023-05-18T23:56:15.708Z,99821.66
2023-05-18T23:58:43.072Z,99816.73
